createdAt,value
2018-07-22T00:00:46.822Z,0.00
2018-07-22T00:01:46.747Z,0.00
2018-07-22T00:02:46.675Z,0.00
2018-07-22T00:03:46.603Z,0.00
2018-07-22T00:04:46.528Z,0.00
2018-07-22T00:05:46.452Z,0.00
2018-07-22T00:06:46.380Z,0.00
2018-07-22T00:07:46.304Z,0.00
2018-07-22T00:08:46.233Z,0.00
2018-07-22T00:09:53.315Z,0.00
2018-07-22T00:11:50.037Z,0.00
2018-07-22T00:12:57.081Z,0.00
2018-07-22T00:15:00.949Z,0.00
2018-07-22T00:16:01.846Z,0.00
2018-07-22T00:18:04.672Z,0.00
2018-07-22T00:18:57.427Z,0.00
2018-07-22T00:21:01.299Z,0.00
2018-07-22T00:22:01.176Z,0.00
2018-07-22T00:24:05.106Z,0.00
2018-07-22T00:25:05.031Z,0.00
2018-07-22T00:27:08.803Z,0.00
2018-07-22T00:28:08.680Z,0.00
2018-07-22T00:30:12.515Z,0.00
2018-07-22T00:31:12.438Z,0.00
2018-07-22T00:33:16.323Z,0.00
2018-07-22T00:34:16.202Z,0.00
2018-07-22T00:36:09.022Z,0.00
2018-07-22T00:37:08.894Z,0.00
2018-07-22T00:39:12.723Z,0.00
2018-07-22T00:40:12.645Z,0.00
2018-07-22T00:42:16.535Z,0.00
2018-07-22T00:43:16.410Z,0.00
2018-07-22T00:45:21.258Z,0.00
2018-07-22T00:46:21.187Z,0.00
2018-07-22T00:48:25.052Z,0.00
2018-07-22T00:49:24.924Z,0.00
2018-07-22T00:50:24.851Z,0.00
2018-07-22T00:51:24.779Z,0.00
2018-07-22T00:52:24.709Z,0.00
2018-07-22T00:53:24.634Z,0.00
2018-07-22T00:54:24.558Z,0.00
2018-07-22T00:55:24.486Z,0.00
2018-07-22T00:56:24.411Z,0.00
2018-07-22T00:57:24.352Z,0.00
2018-07-22T00:58:24.269Z,0.00
2018-07-22T00:59:24.191Z,0.00
2018-07-22T01:00:24.116Z,0.00
2018-07-22T01:01:24.062Z,0.00
2018-07-22T01:02:23.977Z,0.00
2018-07-22T01:03:23.896Z,0.00
2018-07-22T01:04:23.821Z,0.00
2018-07-22T01:05:23.752Z,0.00
2018-07-22T01:06:23.677Z,0.00
2018-07-22T01:07:23.599Z,0.00
2018-07-22T01:08:23.527Z,0.00
2018-07-22T01:09:23.457Z,0.00
2018-07-22T01:10:23.384Z,0.00
2018-07-22T01:11:23.330Z,0.00
2018-07-22T01:12:23.235Z,0.00
2018-07-22T01:13:23.172Z,0.00
2018-07-22T01:14:23.088Z,0.00
2018-07-22T01:15:23.013Z,0.00
2018-07-22T01:16:22.936Z,0.00
2018-07-22T01:17:22.864Z,0.00
2018-07-22T01:18:22.792Z,0.00
2018-07-22T01:19:22.717Z,0.00
2018-07-22T01:20:22.643Z,0.00
2018-07-22T01:21:22.572Z,0.00
2018-07-22T01:22:22.496Z,0.00
2018-07-22T01:23:22.422Z,0.00
2018-07-22T01:24:22.349Z,0.00
2018-07-22T01:25:22.277Z,0.00
2018-07-22T01:26:22.201Z,0.00
2018-07-22T01:27:22.134Z,0.00
2018-07-22T01:28:22.055Z,0.00
2018-07-22T01:29:21.982Z,0.00
2018-07-22T01:30:21.905Z,0.00
2018-07-22T01:31:21.830Z,0.00
2018-07-22T01:32:21.755Z,0.00
2018-07-22T01:33:21.684Z,0.00
2018-07-22T01:34:21.626Z,0.00
2018-07-22T01:35:21.553Z,0.00
2018-07-22T01:36:21.464Z,0.00
2018-07-22T01:37:21.387Z,0.00
2018-07-22T01:38:21.315Z,0.00
2018-07-22T01:39:21.280Z,0.00
2018-07-22T01:40:21.174Z,0.00
2018-07-22T01:41:21.093Z,0.00
2018-07-22T01:42:21.020Z,0.00
2018-07-22T01:43:21.013Z,0.00
2018-07-22T01:44:20.893Z,0.00
2018-07-22T01:45:20.796Z,0.00
2018-07-22T01:46:20.725Z,0.00
2018-07-22T01:47:20.648Z,0.00
2018-07-22T01:48:20.577Z,0.00
2018-07-22T01:49:20.514Z,0.00
2018-07-22T01:50:20.427Z,0.00
2018-07-22T01:51:20.353Z,0.00
2018-07-22T01:52:20.282Z,0.00
2018-07-22T01:53:20.205Z,0.00
2018-07-22T01:54:20.136Z,0.00
2018-07-22T01:55:20.066Z,0.00
2018-07-22T01:56:19.988Z,0.00
2018-07-22T01:57:19.913Z,0.00
2018-07-22T01:58:19.843Z,0.00
2018-07-22T01:59:19.764Z,0.00
2018-07-22T02:00:19.696Z,0.00
2018-07-22T02:01:19.618Z,0.00
2018-07-22T02:02:19.543Z,0.00
2018-07-22T02:03:19.472Z,0.00
2018-07-22T02:04:19.399Z,0.00
2018-07-22T02:05:19.327Z,0.00
2018-07-22T02:06:19.251Z,0.00
2018-07-22T02:07:19.194Z,0.00
2018-07-22T02:08:19.103Z,0.00
2018-07-22T02:09:19.025Z,0.00
2018-07-22T02:10:18.951Z,0.00
2018-07-22T02:11:18.878Z,0.00
2018-07-22T02:12:18.804Z,0.00
2018-07-22T02:13:18.731Z,0.00
2018-07-22T02:14:18.657Z,0.00
2018-07-22T02:15:18.584Z,0.00
2018-07-22T02:16:18.508Z,0.00
2018-07-22T02:17:18.459Z,0.00
2018-07-22T02:18:18.362Z,0.00
2018-07-22T02:19:18.287Z,0.00
2018-07-22T02:20:18.213Z,0.00
2018-07-22T02:21:18.140Z,0.00
2018-07-22T02:22:18.066Z,0.00
2018-07-22T02:23:17.989Z,0.00
2018-07-22T02:24:17.914Z,0.00
2018-07-22T02:25:17.846Z,0.00
2018-07-22T02:26:17.771Z,0.00
2018-07-22T02:27:17.693Z,0.00
2018-07-22T02:28:17.621Z,0.00
2018-07-22T02:29:17.548Z,0.00
2018-07-22T02:30:17.479Z,0.00
2018-07-22T02:31:17.402Z,0.00
2018-07-22T02:32:17.337Z,0.00
2018-07-22T02:33:17.252Z,0.00
2018-07-22T02:34:17.179Z,0.00
2018-07-22T02:35:17.104Z,0.00
2018-07-22T02:36:17.032Z,0.00
2018-07-22T02:37:16.961Z,0.00
2018-07-22T02:38:16.883Z,0.00
2018-07-22T02:39:16.806Z,0.00
2018-07-22T02:40:16.737Z,0.00
2018-07-22T02:41:16.661Z,0.00
2018-07-22T02:42:16.585Z,0.00
2018-07-22T02:43:16.512Z,0.00
2018-07-22T02:44:16.499Z,0.00
2018-07-22T02:45:16.380Z,0.00
2018-07-22T02:46:16.289Z,0.00
2018-07-22T02:47:16.212Z,0.00
2018-07-22T02:48:16.140Z,0.00
2018-07-22T02:49:16.065Z,0.00
2018-07-22T02:50:16.006Z,0.00
2018-07-22T02:51:15.918Z,0.00
2018-07-22T02:52:15.843Z,0.00
2018-07-22T02:53:15.772Z,0.00
2018-07-22T02:54:15.733Z,0.00
2018-07-22T02:55:15.629Z,0.00
2018-07-22T02:56:15.561Z,0.00
2018-07-22T02:57:22.641Z,0.00
2018-07-22T02:59:26.507Z,0.00
2018-07-22T03:00:19.227Z,0.00
2018-07-22T03:02:23.114Z,0.00
2018-07-22T03:03:23.006Z,0.00
2018-07-22T03:05:26.808Z,0.00
2018-07-22T03:06:26.726Z,0.00
2018-07-22T03:07:26.654Z,0.00
2018-07-22T03:08:26.576Z,0.00
2018-07-22T03:09:26.520Z,0.00
2018-07-22T03:10:26.432Z,4.00
2018-07-22T03:11:26.356Z,4.00
2018-07-22T03:12:26.315Z,4.00
2018-07-22T03:13:26.206Z,0.00
2018-07-22T03:14:26.132Z,4.00
2018-07-22T03:15:26.062Z,4.00
2018-07-22T03:16:25.982Z,4.00
2018-07-22T03:17:25.936Z,8.00
2018-07-22T03:18:25.834Z,4.00
2018-07-22T03:19:25.771Z,4.00
2018-07-22T03:20:25.686Z,8.00
2018-07-22T03:21:25.612Z,8.00
2018-07-22T03:22:25.534Z,8.00
2018-07-22T03:23:25.463Z,8.00
2018-07-22T03:24:25.396Z,12.00
2018-07-22T03:25:25.314Z,8.00
2018-07-22T03:26:25.243Z,12.00
2018-07-22T03:27:25.190Z,12.00
2018-07-22T03:28:25.092Z,12.00
2018-07-22T03:29:25.020Z,12.00
2018-07-22T03:30:24.943Z,16.00
2018-07-22T03:31:24.873Z,16.00
2018-07-22T03:32:24.795Z,20.00
2018-07-22T03:33:24.721Z,16.00
2018-07-22T03:34:24.646Z,20.00
2018-07-22T03:35:24.574Z,20.00
2018-07-22T03:36:24.496Z,20.00
2018-07-22T03:37:24.422Z,28.00
2018-07-22T03:38:24.347Z,28.00
2018-07-22T03:39:24.275Z,28.00
2018-07-22T03:40:24.209Z,32.00
2018-07-22T03:41:24.124Z,32.00
2018-07-22T03:42:24.055Z,36.00
2018-07-22T03:43:23.976Z,40.00
2018-07-22T03:44:23.903Z,40.00
2018-07-22T03:45:23.829Z,44.00
2018-07-22T03:46:23.757Z,44.00
2018-07-22T03:47:23.740Z,48.00
2018-07-22T03:48:23.608Z,48.00
2018-07-22T03:49:23.529Z,48.00
2018-07-22T03:50:23.457Z,52.00
2018-07-22T03:51:23.395Z,52.00
2018-07-22T03:52:23.309Z,56.00
2018-07-22T03:53:23.234Z,64.00
2018-07-22T03:54:23.161Z,64.00
2018-07-22T03:55:23.085Z,68.00
2018-07-22T03:56:23.017Z,72.00
2018-07-22T03:57:22.936Z,76.00
2018-07-22T03:58:22.876Z,80.00
2018-07-22T03:59:22.787Z,80.00
2018-07-22T04:00:22.712Z,88.00
2018-07-22T04:01:22.652Z,92.00
2018-07-22T04:02:22.562Z,100.00
2018-07-22T04:03:22.492Z,108.00
2018-07-22T04:04:22.419Z,116.00
2018-07-22T04:05:22.340Z,124.00
2018-07-22T04:06:22.271Z,132.00
2018-07-22T04:07:22.195Z,132.00
2018-07-22T04:08:22.120Z,140.00
2018-07-22T04:09:22.045Z,140.00
2018-07-22T04:10:21.982Z,148.00
2018-07-22T04:11:21.896Z,156.00
2018-07-22T04:12:21.821Z,168.00
2018-07-22T04:13:21.750Z,168.00
2018-07-22T04:14:21.674Z,172.00
2018-07-22T04:15:21.598Z,180.00
2018-07-22T04:16:21.527Z,188.00
2018-07-22T04:17:21.459Z,196.00
2018-07-22T04:18:21.379Z,212.00
2018-07-22T04:19:21.302Z,228.00
2018-07-22T04:20:21.236Z,244.00
2018-07-22T04:21:21.167Z,256.00
2018-07-22T04:22:21.088Z,268.00
2018-07-22T04:23:21.008Z,276.00
2018-07-22T04:24:20.931Z,284.00
2018-07-22T04:25:20.859Z,300.00
2018-07-22T04:26:20.784Z,316.00
2018-07-22T04:27:20.710Z,320.00
2018-07-22T04:28:20.634Z,332.00
2018-07-22T04:29:20.566Z,324.00
2018-07-22T04:30:20.485Z,284.00
2018-07-22T04:31:20.413Z,304.00
2018-07-22T04:32:20.335Z,332.00
2018-07-22T04:33:20.272Z,328.00
2018-07-22T04:34:20.193Z,344.00
2018-07-22T04:35:20.118Z,360.00
2018-07-22T04:36:20.042Z,376.00
2018-07-22T04:37:19.971Z,388.00
2018-07-22T04:38:19.893Z,408.00
2018-07-22T04:39:19.841Z,444.00
2018-07-22T04:40:19.746Z,424.00
2018-07-22T04:41:19.693Z,460.00
2018-07-22T04:42:19.600Z,480.00
2018-07-22T04:43:19.525Z,452.00
2018-07-22T04:44:19.454Z,436.00
2018-07-22T04:45:19.376Z,432.00
2018-07-22T04:46:19.333Z,424.00
2018-07-22T04:47:19.230Z,420.00
2018-07-22T04:48:19.155Z,436.00
2018-07-22T04:49:19.087Z,456.00
2018-07-22T04:50:19.007Z,436.00
2018-07-22T04:51:18.934Z,396.00
2018-07-22T04:52:18.859Z,376.00
2018-07-22T04:53:18.784Z,348.00
2018-07-22T04:54:18.723Z,372.00
2018-07-22T04:55:18.638Z,344.00
2018-07-22T04:56:18.565Z,376.00
2018-07-22T04:57:18.487Z,372.00
2018-07-22T04:58:18.415Z,392.00
2018-07-22T04:59:18.342Z,356.00
2018-07-22T05:00:18.268Z,352.00
2018-07-22T05:01:18.207Z,348.00
2018-07-22T05:02:18.119Z,348.00
2018-07-22T05:03:18.045Z,352.00
2018-07-22T05:04:17.972Z,380.00
2018-07-22T05:05:17.896Z,372.00
2018-07-22T05:06:17.828Z,360.00
2018-07-22T05:07:17.752Z,364.00
2018-07-22T05:08:17.678Z,376.00
2018-07-22T05:09:17.602Z,360.00
2018-07-22T05:10:17.530Z,352.00
2018-07-22T05:11:17.456Z,352.00
2018-07-22T05:12:17.383Z,340.00
2018-07-22T05:13:17.309Z,364.00
2018-07-22T05:14:17.250Z,392.00
2018-07-22T05:15:17.160Z,404.00
2018-07-22T05:16:17.087Z,408.00
2018-07-22T05:17:17.015Z,416.00
2018-07-22T05:18:16.942Z,444.00
2018-07-22T05:19:16.866Z,468.00
2018-07-22T05:20:16.790Z,476.00
2018-07-22T05:21:16.717Z,484.00
2018-07-22T05:22:16.645Z,484.00
2018-07-22T05:23:16.587Z,440.00
2018-07-22T05:24:16.495Z,476.00
2018-07-22T05:25:16.434Z,476.00
2018-07-22T05:26:16.349Z,476.00
2018-07-22T05:27:16.275Z,512.00
2018-07-22T05:28:16.217Z,536.00
2018-07-22T05:29:16.127Z,516.00
2018-07-22T05:30:16.055Z,512.00
2018-07-22T05:31:15.978Z,472.00
2018-07-22T05:32:15.905Z,472.00
2018-07-22T05:33:15.831Z,488.00
2018-07-22T05:34:15.757Z,416.00
2018-07-22T05:35:15.703Z,440.00
2018-07-22T05:36:15.619Z,452.00
2018-07-22T05:37:15.535Z,496.00
2018-07-22T05:38:15.463Z,484.00
2018-07-22T05:39:15.391Z,480.00
2018-07-22T05:40:15.316Z,488.00
2018-07-22T05:41:15.243Z,540.00
2018-07-22T05:42:15.168Z,512.00
2018-07-22T05:43:15.096Z,520.00
2018-07-22T05:44:15.021Z,524.00
2018-07-22T05:45:14.945Z,516.00
2018-07-22T05:46:14.874Z,528.00
2018-07-22T05:47:14.800Z,572.00
2018-07-22T05:48:14.724Z,516.00
2018-07-22T05:49:14.653Z,580.00
2018-07-22T05:50:14.579Z,620.00
2018-07-22T05:51:14.506Z,608.00
2018-07-22T05:52:14.430Z,592.00
2018-07-22T05:53:14.356Z,564.00
2018-07-22T05:54:14.283Z,576.00
2018-07-22T05:55:14.226Z,588.00
2018-07-22T05:56:14.140Z,584.00
2018-07-22T05:57:14.079Z,596.00
2018-07-22T05:58:13.987Z,596.00
2018-07-22T05:59:13.914Z,592.00
2018-07-22T06:00:13.840Z,580.00
2018-07-22T06:01:13.769Z,544.00
2018-07-22T06:02:13.694Z,504.00
2018-07-22T06:03:13.672Z,496.00
2018-07-22T06:04:13.556Z,480.00
2018-07-22T06:05:13.474Z,480.00
2018-07-22T06:06:13.398Z,476.00
2018-07-22T06:07:13.331Z,464.00
2018-07-22T06:08:13.267Z,448.00
2018-07-22T06:09:13.175Z,444.00
2018-07-22T06:10:13.103Z,440.00
2018-07-22T06:11:13.029Z,408.00
2018-07-22T06:12:12.963Z,400.00
2018-07-22T06:13:12.887Z,376.00
2018-07-22T06:14:12.807Z,332.00
2018-07-22T06:15:12.736Z,332.00
2018-07-22T06:16:12.660Z,324.00
2018-07-22T06:17:12.584Z,312.00
2018-07-22T06:18:12.512Z,296.00
2018-07-22T06:19:12.439Z,300.00
2018-07-22T06:20:12.375Z,304.00
2018-07-22T06:21:12.354Z,300.00
2018-07-22T06:22:12.293Z,288.00
2018-07-22T06:23:12.197Z,320.00
2018-07-22T06:24:12.144Z,344.00
2018-07-22T06:25:12.015Z,340.00
2018-07-22T06:26:12.988Z,312.00
2018-07-22T06:27:11.909Z,292.00
2018-07-22T06:28:11.830Z,296.00
2018-07-22T06:29:11.726Z,316.00
2018-07-22T06:30:11.624Z,316.00
2018-07-22T06:31:11.555Z,312.00
2018-07-22T06:32:11.477Z,300.00
2018-07-22T06:33:11.408Z,296.00
2018-07-22T06:34:11.343Z,340.00
2018-07-22T06:35:11.315Z,348.00
2018-07-22T06:36:11.184Z,392.00
2018-07-22T06:37:11.111Z,444.00
2018-07-22T06:38:11.039Z,440.00
2018-07-22T06:39:10.967Z,452.00
2018-07-22T06:40:10.888Z,456.00
2018-07-22T06:41:10.852Z,472.00
2018-07-22T06:42:10.740Z,480.00
2018-07-22T06:43:10.668Z,500.00
2018-07-22T06:44:10.596Z,516.00
2018-07-22T06:45:10.533Z,544.00
2018-07-22T06:46:10.452Z,532.00
2018-07-22T06:47:10.374Z,532.00
2018-07-22T06:48:10.300Z,560.00
2018-07-22T06:49:10.251Z,560.00
2018-07-22T06:50:10.153Z,568.00
2018-07-22T06:51:10.080Z,584.00
2018-07-22T06:52:10.006Z,604.00
2018-07-22T06:53:09.988Z,648.00
2018-07-22T06:54:09.860Z,672.00
2018-07-22T06:55:09.788Z,684.00
2018-07-22T06:56:09.708Z,716.00
2018-07-22T06:57:09.642Z,740.00
2018-07-22T06:58:09.563Z,752.00
2018-07-22T06:59:09.491Z,824.00
2018-07-22T07:00:09.419Z,904.00
2018-07-22T07:01:09.344Z,888.00
2018-07-22T07:02:09.267Z,824.00
2018-07-22T07:03:09.196Z,888.00
2018-07-22T07:04:09.123Z,904.00
2018-07-22T07:05:09.158Z,980.00
2018-07-22T07:06:08.974Z,1040.00
2018-07-22T07:07:08.903Z,1112.00
2018-07-22T07:08:08.827Z,1136.00
2018-07-22T07:09:08.753Z,1168.00
2018-07-22T07:10:08.679Z,1224.00
2018-07-22T07:11:08.608Z,1276.00
2018-07-22T07:12:08.532Z,1324.00
2018-07-22T07:13:08.474Z,1288.00
2018-07-22T07:14:08.385Z,1252.00
2018-07-22T07:15:08.311Z,1112.00
2018-07-22T07:16:08.239Z,1092.00
2018-07-22T07:17:08.227Z,1148.00
2018-07-22T07:18:08.162Z,1192.00
2018-07-22T07:19:08.134Z,1208.00
2018-07-22T07:20:08.018Z,1284.00
2018-07-22T07:21:07.925Z,1296.00
2018-07-22T07:22:07.856Z,1240.00
2018-07-22T07:23:07.778Z,1252.00
2018-07-22T07:24:07.751Z,1204.00
2018-07-22T07:25:07.643Z,1136.00
2018-07-22T07:26:07.539Z,1092.00
2018-07-22T07:27:07.488Z,1040.00
2018-07-22T07:28:07.443Z,1008.00
2018-07-22T07:29:07.329Z,924.00
2018-07-22T07:30:07.239Z,984.00
2018-07-22T07:31:07.157Z,1100.00
2018-07-22T07:32:07.124Z,1204.00
2018-07-22T07:33:07.099Z,1324.00
2018-07-22T07:34:07.001Z,1356.00
2018-07-22T07:35:06.899Z,1504.00
2018-07-22T07:36:06.842Z,1596.00
2018-07-22T07:37:06.745Z,1560.00
2018-07-22T07:38:06.707Z,1576.00
2018-07-22T07:39:06.620Z,1672.00
2018-07-22T07:40:06.555Z,1672.00
2018-07-22T07:41:06.468Z,1532.00
2018-07-22T07:42:06.401Z,1456.00
2018-07-22T07:43:06.252Z,1324.00
2018-07-22T07:44:06.180Z,1164.00
2018-07-22T07:45:06.127Z,1176.00
2018-07-22T07:46:06.033Z,1208.00
2018-07-22T07:47:05.960Z,1176.00
2018-07-22T07:48:05.888Z,1048.00
2018-07-22T07:49:05.831Z,1004.00
2018-07-22T07:50:05.758Z,1072.00
2018-07-22T07:51:05.931Z,1108.00
2018-07-22T07:52:05.595Z,1128.00
2018-07-22T07:54:48.226Z,1168.00
2018-07-22T07:55:48.108Z,1272.00
2018-07-22T07:57:51.842Z,1356.00
2018-07-22T07:58:51.798Z,1380.00
2018-07-22T08:00:55.636Z,1312.00
2018-07-22T08:01:55.565Z,1288.00
2018-07-22T08:03:59.361Z,1624.00
2018-07-22T08:04:59.306Z,1672.00
2018-07-22T08:06:52.093Z,1720.00
2018-07-22T08:07:51.978Z,1972.00
2018-07-22T08:09:55.859Z,2440.00
2018-07-22T08:10:55.736Z,2624.00
2018-07-22T08:12:59.570Z,2704.00
2018-07-22T08:13:59.490Z,2740.00
2018-07-22T08:16:03.396Z,3036.00
2018-07-22T08:17:03.349Z,3188.00
2018-07-22T08:19:07.231Z,3148.00
2018-07-22T08:20:07.080Z,3196.00
2018-07-22T08:22:11.085Z,3364.00
2018-07-22T08:23:10.844Z,3280.00
2018-07-22T08:24:10.777Z,3308.00
2018-07-22T08:25:10.733Z,3284.00
2018-07-22T08:26:10.694Z,3136.00
2018-07-22T08:27:10.566Z,2988.00
2018-07-22T08:28:11.451Z,2880.00
2018-07-22T08:29:10.423Z,2880.00
2018-07-22T08:30:10.276Z,2912.00
2018-07-22T08:31:10.272Z,2896.00
2018-07-22T08:32:10.185Z,2976.00
2018-07-22T08:33:10.136Z,3136.00
2018-07-22T08:34:10.073Z,3308.00
2018-07-22T08:35:09.982Z,3176.00
2018-07-22T08:36:09.896Z,3060.00
2018-07-22T08:37:09.796Z,3144.00
2018-07-22T08:38:09.763Z,3304.00
2018-07-22T08:39:09.808Z,3572.00
2018-07-22T08:40:09.618Z,3688.00
2018-07-22T08:41:09.531Z,3544.00
2018-07-22T08:42:09.404Z,3604.00
2018-07-22T08:43:09.327Z,3820.00
2018-07-22T08:44:09.251Z,4024.00
2018-07-22T08:45:09.179Z,4152.00
2018-07-22T08:46:09.109Z,4100.00
2018-07-22T08:47:09.037Z,4216.00
2018-07-22T08:48:08.962Z,4460.00
2018-07-22T08:49:08.888Z,4700.00
2018-07-22T08:50:08.817Z,4656.00
2018-07-22T08:51:08.802Z,4424.00
2018-07-22T08:52:08.679Z,4360.00
2018-07-22T08:53:08.605Z,4292.00
2018-07-22T08:54:08.527Z,4072.00
2018-07-22T08:55:08.455Z,4012.00
2018-07-22T08:56:08.381Z,4160.00
2018-07-22T08:57:08.311Z,4172.00
2018-07-22T08:58:08.238Z,4552.00
2018-07-22T08:59:08.168Z,5052.00
2018-07-22T09:00:08.096Z,5260.00
2018-07-22T09:01:08.029Z,5336.00
2018-07-22T09:02:07.950Z,4932.00
2018-07-22T09:03:07.877Z,4328.00
2018-07-22T09:04:07.807Z,3764.00
2018-07-22T09:05:07.735Z,3780.00
2018-07-22T09:06:07.659Z,4008.00
2018-07-22T09:07:07.591Z,4068.00
2018-07-22T09:08:07.526Z,4148.00
2018-07-22T09:09:07.444Z,4124.00
2018-07-22T09:10:07.371Z,3932.00
2018-07-22T09:11:07.297Z,3924.00
2018-07-22T09:12:07.281Z,4060.00
2018-07-22T09:13:07.233Z,4004.00
2018-07-22T09:14:07.144Z,4148.00
2018-07-22T09:15:07.080Z,4376.00
2018-07-22T09:16:06.996Z,4572.00
2018-07-22T09:17:06.940Z,4756.00
2018-07-22T09:18:06.968Z,5112.00
2018-07-22T09:19:06.807Z,5556.00
2018-07-22T09:20:06.727Z,5980.00
2018-07-22T09:21:06.642Z,6260.00
2018-07-22T09:22:06.582Z,6452.00
2018-07-22T09:23:06.502Z,6984.00
2018-07-22T09:24:06.427Z,7680.00
2018-07-22T09:25:06.393Z,8104.00
2018-07-22T09:26:06.281Z,8264.00
2018-07-22T09:27:06.217Z,8292.00
2018-07-22T09:28:06.090Z,8176.00
2018-07-22T09:29:06.009Z,7792.00
2018-07-22T09:30:05.937Z,7528.00
2018-07-22T09:31:05.873Z,7172.00
2018-07-22T09:32:05.796Z,6852.00
2018-07-22T09:33:05.724Z,6308.00
2018-07-22T09:34:05.654Z,5688.00
2018-07-22T09:35:05.586Z,5100.00
2018-07-22T09:36:05.659Z,4608.00
2018-07-22T09:37:05.437Z,4704.00
2018-07-22T09:39:47.980Z,4172.00
2018-07-22T09:40:47.868Z,4672.00
2018-07-22T09:42:51.693Z,5584.00
2018-07-22T09:43:51.627Z,6144.00
2018-07-22T09:45:55.507Z,6352.00
2018-07-22T09:46:55.385Z,6304.00
2018-07-22T09:48:59.264Z,6344.00
2018-07-22T09:49:59.143Z,6672.00
2018-07-22T09:52:03.002Z,7528.00
2018-07-22T09:53:02.906Z,7136.00
2018-07-22T09:55:06.855Z,6832.00
2018-07-22T09:56:06.679Z,6972.00
2018-07-22T09:58:10.507Z,7428.00
2018-07-22T09:59:10.433Z,7560.00
2018-07-22T10:01:14.313Z,7660.00
2018-07-22T10:02:14.195Z,7180.00
2018-07-22T10:04:18.072Z,6640.00
2018-07-22T10:05:17.991Z,7000.00
2018-07-22T10:07:21.961Z,7584.00
2018-07-22T10:08:21.892Z,7532.00
2018-07-22T10:09:21.805Z,7188.00
2018-07-22T10:10:22.383Z,6540.00
2018-07-22T10:11:21.655Z,5660.00
2018-07-22T10:12:21.597Z,4944.00
2018-07-22T10:13:21.528Z,4308.00
2018-07-22T10:14:22.397Z,3820.00
2018-07-22T10:15:21.372Z,3492.00
2018-07-22T10:16:21.342Z,3376.00
2018-07-22T10:17:21.317Z,3376.00
2018-07-22T10:18:21.167Z,3472.00
2018-07-22T10:19:21.127Z,3620.00
2018-07-22T10:20:20.979Z,3984.00
2018-07-22T10:21:20.930Z,4588.00
2018-07-22T10:22:20.836Z,5408.00
2018-07-22T10:23:20.877Z,6180.00
2018-07-22T10:24:20.774Z,6728.00
2018-07-22T10:25:20.690Z,7320.00
2018-07-22T10:26:20.600Z,7800.00
2018-07-22T10:27:20.542Z,8184.00
2018-07-22T10:28:20.479Z,8448.00
2018-07-22T10:29:20.427Z,8716.00
2018-07-22T10:30:20.348Z,8892.00
2018-07-22T10:31:20.263Z,9036.00
2018-07-22T10:32:20.191Z,9120.00
2018-07-22T10:33:20.118Z,9288.00
2018-07-22T10:34:20.026Z,9428.00
2018-07-22T10:35:19.972Z,9512.00
2018-07-22T10:36:20.023Z,9568.00
2018-07-22T10:37:20.385Z,9608.00
2018-07-22T10:38:19.722Z,9552.00
2018-07-22T10:39:19.693Z,9172.00
2018-07-22T10:40:19.615Z,9288.00
2018-07-22T10:41:19.595Z,9376.00
2018-07-22T10:42:19.497Z,9172.00
2018-07-22T10:43:19.450Z,8560.00
2018-07-22T10:44:19.361Z,7620.00
2018-07-22T10:45:19.284Z,6740.00
2018-07-22T10:46:19.266Z,5944.00
2018-07-22T10:47:19.093Z,5220.00
2018-07-22T10:48:19.062Z,4496.00
2018-07-22T10:49:19.001Z,4656.00
2018-07-22T10:50:18.875Z,5372.00
2018-07-22T10:51:18.868Z,6052.00
2018-07-22T10:52:18.809Z,6372.00
2018-07-22T10:53:18.732Z,6388.00
2018-07-22T10:54:18.700Z,6324.00
2018-07-22T10:55:18.623Z,5848.00
2018-07-22T10:56:18.524Z,5160.00
2018-07-22T10:57:18.444Z,4436.00
2018-07-22T10:58:18.392Z,3996.00
2018-07-22T10:59:18.255Z,3620.00
2018-07-22T11:00:18.237Z,3264.00
2018-07-22T11:01:18.167Z,3080.00
2018-07-22T11:02:18.136Z,3232.00
2018-07-22T11:03:18.063Z,3384.00
2018-07-22T11:04:17.939Z,3332.00
2018-07-22T11:05:17.893Z,3356.00
2018-07-22T11:06:17.811Z,3492.00
2018-07-22T11:07:17.764Z,3412.00
2018-07-22T11:08:17.656Z,3368.00
2018-07-22T11:09:17.710Z,3396.00
2018-07-22T11:10:17.564Z,3556.00
2018-07-22T11:11:17.468Z,3472.00
2018-07-22T11:12:17.391Z,3168.00
2018-07-22T11:13:17.345Z,3116.00
2018-07-22T11:14:17.293Z,3236.00
2018-07-22T11:15:17.182Z,3452.00
2018-07-22T11:16:17.108Z,3520.00
2018-07-22T11:17:17.040Z,3684.00
2018-07-22T11:18:16.985Z,4080.00
2018-07-22T11:19:16.881Z,4680.00
2018-07-22T11:20:16.845Z,5256.00
2018-07-22T11:21:16.974Z,5776.00
2018-07-22T11:22:16.699Z,6216.00
2018-07-22T11:23:16.619Z,6540.00
2018-07-22T11:24:16.571Z,6788.00
2018-07-22T11:25:16.491Z,7036.00
2018-07-22T11:26:16.351Z,7128.00
2018-07-22T11:27:16.280Z,7240.00
2018-07-22T11:28:16.317Z,7492.00
2018-07-22T11:29:16.139Z,7796.00
2018-07-22T11:30:16.077Z,8108.00
2018-07-22T11:31:16.102Z,8420.00
2018-07-22T11:32:16.032Z,8712.00
2018-07-22T11:33:15.972Z,8964.00
2018-07-22T11:34:15.898Z,9112.00
2018-07-22T11:35:15.826Z,9236.00
2018-07-22T11:36:15.760Z,9332.00
2018-07-22T11:37:15.683Z,9252.00
2018-07-22T11:38:15.673Z,9008.00
2018-07-22T11:39:15.546Z,8664.00
2018-07-22T11:40:15.470Z,8364.00
2018-07-22T11:41:15.411Z,8124.00
2018-07-22T11:42:15.239Z,7932.00
2018-07-22T11:43:15.161Z,7808.00
2018-07-22T11:44:15.091Z,7744.00
2018-07-22T11:45:15.131Z,7612.00
2018-07-22T11:46:14.954Z,7420.00
2018-07-22T11:47:14.987Z,7248.00
2018-07-22T11:48:14.812Z,7160.00
2018-07-22T11:49:14.742Z,7132.00
2018-07-22T11:50:14.820Z,7148.00
2018-07-22T11:51:14.717Z,7196.00
2018-07-22T11:52:14.639Z,7224.00
2018-07-22T11:53:14.467Z,7224.00
2018-07-22T11:54:14.401Z,7228.00
2018-07-22T11:55:14.328Z,7268.00
2018-07-22T11:56:14.256Z,7304.00
2018-07-22T11:57:14.191Z,7376.00
2018-07-22T11:58:14.126Z,7344.00
2018-07-22T11:59:14.049Z,7272.00
2018-07-22T12:00:14.069Z,7280.00
2018-07-22T12:01:13.910Z,7372.00
2018-07-22T12:02:13.841Z,7508.00
2018-07-22T12:03:13.774Z,7656.00
2018-07-22T12:04:13.709Z,7880.00
2018-07-22T12:05:13.739Z,8116.00
2018-07-22T12:06:13.568Z,8208.00
2018-07-22T12:07:13.602Z,8188.00
2018-07-22T12:08:13.425Z,8044.00
2018-07-22T12:09:13.357Z,7788.00
2018-07-22T12:10:13.301Z,7488.00
2018-07-22T12:11:13.219Z,7264.00
2018-07-22T12:12:13.210Z,7024.00
2018-07-22T12:13:13.185Z,6964.00
2018-07-22T12:14:13.015Z,6956.00
2018-07-22T12:15:13.053Z,6976.00
2018-07-22T12:16:12.879Z,6960.00
2018-07-22T12:17:12.804Z,6996.00
2018-07-22T12:18:12.739Z,6960.00
2018-07-22T12:19:12.669Z,6900.00
2018-07-22T12:20:12.702Z,6736.00
2018-07-22T12:21:12.590Z,6732.00
2018-07-22T12:22:12.574Z,6756.00
2018-07-22T12:23:12.392Z,6996.00
2018-07-22T12:24:12.322Z,7296.00
2018-07-22T12:25:12.359Z,7440.00
2018-07-22T12:26:12.192Z,7444.00
2018-07-22T12:27:12.116Z,7324.00
2018-07-22T12:28:12.204Z,7060.00
2018-07-22T12:29:12.016Z,6768.00
2018-07-22T12:30:11.940Z,6528.00
2018-07-22T12:31:11.840Z,6348.00
2018-07-22T12:32:11.773Z,6180.00
2018-07-22T12:33:11.816Z,6100.00
2018-07-22T12:34:11.668Z,6064.00
2018-07-22T12:35:11.669Z,6028.00
2018-07-22T12:36:11.496Z,5992.00
2018-07-22T12:37:11.426Z,5948.00
2018-07-22T12:38:11.358Z,5684.00
2018-07-22T12:39:11.290Z,5456.00
2018-07-22T12:40:11.330Z,5432.00
2018-07-22T12:41:11.152Z,5744.00
2018-07-22T12:42:11.084Z,6264.00
2018-07-22T12:43:11.045Z,6684.00
2018-07-22T12:44:10.945Z,6976.00
2018-07-22T12:45:10.979Z,7044.00
2018-07-22T12:46:10.807Z,6844.00
2018-07-22T12:47:10.741Z,6456.00
2018-07-22T12:48:10.679Z,6136.00
2018-07-22T12:49:10.600Z,5932.00
2018-07-22T12:50:10.639Z,5948.00
2018-07-22T12:51:10.462Z,6148.00
2018-07-22T12:52:10.396Z,6644.00
2018-07-22T12:53:10.344Z,7168.00
2018-07-22T12:54:10.256Z,8004.00
2018-07-22T12:55:10.297Z,8560.00
2018-07-22T12:56:10.126Z,9540.00
2018-07-22T12:57:10.049Z,9940.00
2018-07-22T12:58:10.085Z,10280.00
2018-07-22T12:59:09.913Z,10824.00
2018-07-22T13:00:09.850Z,11644.00
2018-07-22T13:01:09.772Z,12356.00
2018-07-22T13:02:09.811Z,13280.00
2018-07-22T13:03:09.638Z,13856.00
2018-07-22T13:04:09.673Z,14612.00
2018-07-22T13:05:09.608Z,15680.00
2018-07-22T13:06:09.438Z,16576.00
2018-07-22T13:07:09.363Z,16416.00
2018-07-22T13:08:09.379Z,16096.00
2018-07-22T13:09:09.332Z,15712.00